Time;durP1;ratioP1;P1;durP2;ratioP2;P2;SDS_P1;SDS_P2;PMS_P1;PMS_P2;Temp;Humidity;BMP_temperature;BMP_pressure;BME280_temperature;BME280_humidity;BME280_pressure;Samples;Min_cycle;Max_cycle;Signal;HPM_P1;HPM_P2
2022/01/09 00:01:44;;;;;;;23.80;11.33;;;;;;;0.96;82.96;100270.05;125351;1102;104320;-79
2022/01/09 00:04:16;;;;;;;19.67;9.63;;;;;;;0.95;82.60;100258.83;125290;1102;104155;-80
2022/01/09 00:06:50;;;;;;;19.90;10.40;;;;;;;0.96;82.28;100259.71;126294;1099;104140;-80
2022/01/09 00:09:21;;;;;;;21.43;10.83;;;;;;;0.95;82.37;100260.48;126358;1098;104201;-80
2022/01/09 00:11:53;;;;;;;22.53;10.60;;;;;;;0.95;82.74;100248.49;126372;1099;104162;-80
2022/01/09 00:14:25;;;;;;;21.03;10.37;;;;;;;0.94;82.53;100246.69;126301;1099;104296;-81
2022/01/09 00:16:56;;;;;;;20.37;10.67;;;;;;;0.95;82.29;100245.91;126339;1099;104291;-80
2022/01/09 00:19:28;;;;;;;21.27;10.50;;;;;;;0.96;82.70;100239.93;126286;1099;104153;-81
2022/01/09 00:21:59;;;;;;;21.43;11.00;;;;;;;0.94;82.53;100236.35;126150;1099;104174;-81
2022/01/09 00:24:30;;;;;;;20.70;10.53;;;;;;;0.96;82.34;100239.93;126070;1099;104297;-82
2022/01/09 00:27:02;;;;;;;20.33;10.27;;;;;;;0.96;82.09;100239.05;126129;1099;104253;-81
2022/01/09 00:29:33;;;;;;;21.50;10.70;;;;;;;0.96;82.34;100228.70;126127;1099;104306;-81
2022/01/09 00:32:06;;;;;;;18.63;9.83;;;;;;;0.98;82.00;100229.70;126137;1099;104200;-81
2022/01/09 00:34:38;;;;;;;21.43;10.87;;;;;;;0.97;82.15;100235.68;126134;1099;104195;-80
2022/01/09 00:37:09;;;;;;;20.57;10.17;;;;;;;0.96;82.32;100227.02;125435;1099;104376;-79
2022/01/09 00:39:40;;;;;;;20.67;9.67;;;;;;;0.96;82.64;100231.30;125408;1099;104187;-79
2022/01/09 00:42:12;;;;;;;21.23;10.33;;;;;;;0.97;82.00;100230.52;126292;1099;104252;-80
2022/01/09 00:44:44;;;;;;;20.07;10.43;;;;;;;0.97;82.27;100223.65;126248;1099;104156;-80
2022/01/09 00:47:15;;;;;;;20.33;10.03;;;;;;;0.96;82.52;100221.84;126281;1099;104149;-80
2022/01/09 00:49:46;;;;;;;24.47;11.27;;;;;;;0.96;81.98;100215.79;126335;1099;104364;-80
2022/01/09 00:52:18;;;;;;;22.00;10.33;;;;;;;0.96;82.42;100215.79;126300;1099;104153;-80
2022/01/09 00:54:49;;;;;;;20.83;10.63;;;;;;;0.96;82.49;100214.09;126358;1099;104175;-81
2022/01/09 00:57:21;;;;;;;22.40;10.90;;;;;;;0.96;82.19;100201.17;126334;1099;104156;-80
2022/01/09 00:59:52;;;;;;;23.40;11.00;;;;;;;0.96;82.28;100196.00;126319;1099;104175;-79
2022/01/09 01:02:24;;;;;;;22.90;10.90;;;;;;;0.96;82.50;100190.84;126325;1099;104195;-81
2022/01/09 01:04:55;;;;;;;24.80;11.77;;;;;;;0.97;82.04;100190.06;126273;1099;104657;-80
2022/01/09 01:07:28;;;;;;;24.10;10.87;;;;;;;0.99;82.27;100183.30;126266;1099;104258;-79
2022/01/09 01:09:59;;;;;;;21.57;10.07;;;;;;;1.00;82.16;100176.47;126372;1098;104165;-80
2022/01/09 01:12:33;;;;;;;21.07;10.57;;;;;;;1.00;82.23;100172.19;126337;1099;104252;-80
2022/01/09 01:15:06;;;;;;;22.52;10.88;;;;;;;1.01;83.01;100176.57;126354;1098;104223;-80
2022/01/09 01:17:38;;;;;;;20.25;8.58;;;;;;;1.00;82.88;100169.59;126314;1099;105116;-80
2022/01/09 01:20:12;;;;;;;22.80;11.07;;;;;;;0.99;82.83;100170.38;125468;1099;104323;-81
2022/01/09 01:22:46;;;;;;;24.40;11.50;;;;;;;0.99;82.46;100160.05;126366;1099;104146;-80
2022/01/09 01:25:18;;;;;;;24.57;11.97;;;;;;;0.99;82.07;100154.88;126333;1099;104267;-81
2022/01/09 01:27:52;;;;;;;23.17;11.67;;;;;;;1.02;81.91;100155.09;126355;1099;104194;-81
2022/01/09 01:30:23;;;;;;;23.52;11.93;;;;;;;1.05;82.13;100157.00;126326;1099;104236;-81
2022/01/09 01:32:54;;;;;;;24.73;12.07;;;;;;;1.06;82.66;100146.77;126317;1099;104204;-80
2022/01/09 01:35:30;;;;;;;25.00;11.63;;;;;;;1.10;82.73;100146.97;126363;1099;104318;-78
2022/01/09 01:38:01;;;;;;;22.80;11.50;;;;;;;1.07;82.58;100137.31;126318;1099;104152;-79
2022/01/09 01:40:32;;;;;;;21.53;10.33;;;;;;;1.08;83.05;100131.36;126386;1099;104333;-79
2022/01/09 01:43:04;;;;;;;21.83;11.13;;;;;;;1.10;82.35;100132.35;126311;1098;104147;-79
2022/01/09 01:45:35;;;;;;;23.03;10.43;;;;;;;1.14;82.15;100129.19;126395;1099;104174;-79
2022/01/09 01:48:09;;;;;;;21.70;10.47;;;;;;;1.19;82.27;100124.33;126284;1098;110493;-80
2022/01/09 01:50:43;;;;;;;25.43;12.05;;;;;;;1.22;82.61;100121.95;126387;1099;104220;-80
2022/01/09 01:53:16;;;;;;;;;;;;;;;1.25;82.09;100115.28;126276;1099;104188;-82
2022/01/09 01:55:53;;;;;;;23.27;11.37;;;;;;;1.29;82.22;100118.96;126123;1099;104258;-82
2022/01/09 01:58:26;;;;;;;20.40;9.90;;;;;;;1.32;81.93;100108.83;126189;1099;104178;-81
2022/01/09 02:00:59;;;;;;;21.43;9.80;;;;;;;1.31;82.33;100096.72;126204;1099;104141;-81
2022/01/09 02:06:18;;;;;;;21.47;10.40;;;;;;;1.24;82.37;100084.16;126093;1099;104198;-80
2022/01/09 02:08:50;;;;;;;24.32;10.53;;;;;;;1.21;82.41;100078.80;126293;1099;107068;-82
2022/01/09 02:11:22;;;;;;;22.63;10.57;;;;;;;1.17;83.34;100072.54;126310;1099;104185;-79
2022/01/09 02:13:53;;;;;;;23.93;11.17;;;;;;;1.13;83.18;100064.48;126280;1099;104150;-79
2022/01/09 02:16:28;;;;;;;24.35;11.10;;;;;;;1.11;82.92;100060.87;126321;1099;104284;-80
2022/01/09 02:19:02;;;;;;;23.17;10.63;;;;;;;1.10;83.26;100048.77;126344;1099;104195;-79
2022/01/09 02:21:34;;;;;;;22.93;11.43;;;;;;;1.05;82.87;100046.77;126309;1099;104159;-79
2022/01/09 02:24:05;;;;;;;23.80;11.77;;;;;;;1.04;82.68;100038.91;126368;1099;104178;-79
2022/01/09 02:26:37;;;;;;;26.90;12.73;;;;;;;1.03;82.96;100043.20;126295;1099;104172;-79
2022/01/09 02:29:10;;;;;;;26.63;12.60;;;;;;;1.03;82.86;100040.61;126345;1098;104187;-79
2022/01/09 02:31:42;;;;;;;26.47;11.93;;;;;;;1.04;83.22;100033.74;125377;1101;104274;-79
2022/01/09 02:34:14;;;;;;;26.70;11.13;;;;;;;1.03;82.29;100035.45;126241;1098;104210;-80
2022/01/09 02:36:46;;;;;;;23.93;10.57;;;;;;;1.02;83.62;100031.06;126354;1099;104150;-79
2022/01/09 02:39:17;;;;;;;24.05;10.65;;;;;;;0.99;83.60;100023.11;126316;1099;111673;-79
2022/01/09 02:41:50;;;;;;;27.03;11.60;;;;;;;0.97;83.10;100022.12;126371;1098;105623;-79
2022/01/09 02:44:21;;;;;;;25.83;12.23;;;;;;;0.96;83.30;100027.19;126332;1099;104149;-79
2022/01/09 02:47:01;;;;;;;25.60;11.13;;;;;;;0.95;83.03;100026.30;126320;1099;104265;-79
2022/01/09 02:49:34;;;;;;;26.37;12.13;;;;;;;0.95;83.09;100025.38;125442;1099;104198;-79
2022/01/09 02:52:21;;;;;;;25.95;12.00;;;;;;;0.94;82.66;100021.03;125404;1099;104315;-79
2022/01/09 02:55:15;;;;;;;25.57;11.57;;;;;;;0.93;83.90;100021.81;126288;1099;104165;-79
2022/01/09 02:57:50;;;;;;;28.47;12.10;;;;;;;0.90;83.78;100017.33;126292;1099;104338;-80
2022/01/09 03:00:23;;;;;;;24.20;11.83;;;;;;;0.91;83.47;100010.50;126336;1099;104153;-80
2022/01/09 03:02:56;;;;;;;27.20;12.23;;;;;;;0.92;82.97;100005.43;126337;1099;105246;-80
2022/01/09 03:05:29;;;;;;;24.60;12.07;;;;;;;0.95;83.15;99989.22;126340;1099;104162;-79
2022/01/09 03:08:04;;;;;;;24.20;9.43;;;;;;;0.94;83.59;99990.91;126295;1099;104171;-79
2022/01/09 03:10:37;;;;;;;24.67;11.97;;;;;;;0.96;83.04;99984.15;126320;1099;104156;-79
2022/01/09 03:13:10;;;;;;;26.23;11.83;;;;;;;0.97;82.91;99990.23;126253;1099;104156;-80
2022/01/09 03:15:44;;;;;;;25.63;11.67;;;;;;;0.98;83.40;99987.75;125446;1099;104267;-80
2022/01/09 03:18:17;;;;;;;25.87;12.00;;;;;;;0.98;83.12;99977.41;126315;1099;104268;-80
2022/01/09 03:20:52;;;;;;;25.47;11.43;;;;;;;1.01;83.23;99982.78;125465;1102;104140;-80
2022/01/09 03:23:23;;;;;;;24.40;11.97;;;;;;;1.01;83.32;99984.45;126345;1099;104181;-80
2022/01/09 03:25:58;;;;;;;27.13;12.27;;;;;;;1.05;83.17;99994.20;126291;1099;104328;-79
2022/01/09 03:28:29;;;;;;;26.63;12.00;;;;;;;1.05;82.77;99989.92;125394;1099;104258;-81
2022/01/09 03:31:02;;;;;;;25.63;12.17;;;;;;;1.08;83.32;99990.12;126342;1099;104204;-80
2022/01/09 03:33:34;;;;;;;23.93;11.10;;;;;;;1.12;82.93;99986.03;126341;1099;104150;-80
2022/01/09 03:36:07;;;;;;;25.20;11.18;;;;;;;1.14;83.26;99987.05;126357;1099;104195;-80
2022/01/09 03:38:39;;;;;;;28.47;11.97;;;;;;;1.16;82.56;99987.16;126258;1098;104294;-81
2022/01/09 03:41:10;;;;;;;27.27;11.77;;;;;;;1.17;82.59;99981.16;126361;1098;104178;-80
2022/01/09 03:43:42;;;;;;;25.10;11.43;;;;;;;1.18;83.49;99975.21;126335;1099;104165;-80
2022/01/09 03:46:13;;;;;;;25.47;10.97;;;;;;;1.16;82.80;99974.23;126371;1099;104255;-80
2022/01/09 03:48:44;;;;;;;26.27;11.23;;;;;;;1.16;82.98;99967.36;126296;1099;105725;-81
2022/01/09 03:51:16;;;;;;;26.70;11.40;;;;;;;1.14;83.59;99958.62;126326;1099;104233;-79
2022/01/09 03:53:47;;;;;;;24.47;11.50;;;;;;;1.12;83.20;99951.55;126369;1099;104153;-80
2022/01/09 03:56:21;;;;;;;30.23;11.40;;;;;;;1.13;82.90;99958.53;126313;1099;104160;-80
2022/01/09 03:58:51;;;;;;;;;;;;;;;1.09;83.16;99967.75;126304;1098;104150;-79
2022/01/09 04:01:22;;;;;;;27.47;11.20;;;;;;;1.08;83.17;99968.56;126287;1099;104232;-78
2022/01/09 04:03:54;;;;;;;27.03;11.43;;;;;;;1.07;83.09;99956.42;125392;1099;104309;-79
2022/01/09 04:06:26;;;;;;;23.60;10.33;;;;;;;1.08;82.80;99951.36;126350;1099;104152;-80
2022/01/09 04:09:06;;;;;;;26.97;12.20;;;;;;;1.08;82.70;99948.77;126316;1099;104156;-80
2022/01/09 04:11:39;;;;;;;26.67;11.30;;;;;;;1.08;83.59;99930.69;126361;1099;104650;-78
2022/01/09 04:14:13;;;;;;;26.82;11.95;;;;;;;1.06;82.99;99931.38;126312;1099;104201;-79
2022/01/09 04:16:44;;;;;;;27.03;12.13;;;;;;;1.04;83.28;99926.14;126297;1099;104268;-79
2022/01/09 04:19:15;;;;;;;25.73;12.03;;;;;;;1.02;82.96;99929.41;126237;1099;104156;-80
2022/01/09 04:21:47;;;;;;;22.83;9.20;;;;;;;1.01;83.60;99925.02;126367;1099;104206;-79
2022/01/09 04:24:24;;;;;;;24.60;10.97;;;;;;;1.01;83.88;99940.53;126281;1099;104258;-80
2022/01/09 04:26:55;;;;;;;27.87;12.17;;;;;;;1.01;83.79;99941.45;126375;1099;104248;-80
2022/01/09 04:29:29;;;;;;;25.33;11.30;;;;;;;0.99;83.76;99939.55;126286;1099;104159;-81
2022/01/09 04:32:00;;;;;;;27.35;11.68;;;;;;;0.97;83.72;99931.69;126390;1099;104149;-80
2022/01/09 04:34:31;;;;;;;27.53;11.87;;;;;;;0.97;83.32;99939.45;126284;1099;104227;-79
2022/01/09 04:37:03;;;;;;;26.20;11.47;;;;;;;0.97;83.84;99931.69;126386;1099;104156;-79
2022/01/09 04:39:34;;;;;;;27.53;11.70;;;;;;;0.95;84.01;99929.80;126267;1099;104175;-79
2022/01/09 04:42:08;;;;;;;25.60;11.43;;;;;;;0.94;83.24;99931.50;126307;1099;104258;-78
2022/01/09 04:44:43;;;;;;;25.10;11.60;;;;;;;0.94;83.41;99926.33;125438;1099;104194;-79
2022/01/09 04:47:16;;;;;;;30.97;11.83;;;;;;;0.94;84.18;99928.91;126322;1099;104140;-79
2022/01/09 04:49:49;;;;;;;29.90;12.68;;;;;;;0.92;83.81;99920.18;126270;1099;101727;-79
2022/01/09 04:52:25;;;;;;;27.70;11.87;;;;;;;0.93;84.02;99921.95;126327;1099;104204;-79
2022/01/09 04:54:58;;;;;;;27.07;11.30;;;;;;;0.91;84.03;99918.38;126370;1099;104210;-80
2022/01/09 04:57:32;;;;;;;26.67;11.57;;;;;;;0.91;84.09;99918.38;126375;1099;104197;-80
2022/01/09 05:00:05;;;;;;;27.50;12.37;;;;;;;0.91;83.82;99918.38;126300;1099;104576;-81
2022/01/09 05:02:37;;;;;;;25.80;11.80;;;;;;;0.93;83.62;99913.31;126331;1099;104137;-81
2022/01/09 05:05:10;;;;;;;28.37;12.70;;;;;;;0.94;83.71;99923.74;126114;1099;104279;-81
2022/01/09 05:07:45;;;;;;;32.95;13.72;;;;;;;0.95;83.20;99922.96;126051;1099;104141;-80
2022/01/09 05:10:17;;;;;;;27.77;12.43;;;;;;;0.97;83.55;99918.78;126102;1099;104171;-81
2022/01/09 05:12:48;;;;;;;27.87;12.03;;;;;;;0.98;83.80;99912.83;126161;1099;104272;-81
2022/01/09 05:15:21;;;;;;;29.33;12.53;;;;;;;0.99;83.69;99922.34;126163;1099;104265;-81
2022/01/09 05:17:58;;;;;;;29.30;12.07;;;;;;;1.02;83.52;99919.95;126161;1099;104248;-81
2022/01/09 05:20:31;;;;;;;29.57;12.30;;;;;;;1.03;83.82;99915.70;126073;1099;105114;-80
2022/01/09 05:23:07;;;;;;;31.77;11.03;;;;;;;1.00;83.86;99911.22;126127;1099;104182;-81
2022/01/09 05:25:43;;;;;;;30.80;12.37;;;;;;;0.98;82.97;99917.08;126096;1099;104226;-82
2022/01/09 05:28:15;;;;;;;30.40;12.82;;;;;;;0.99;83.55;99911.13;126128;1099;104220;-81
2022/01/09 05:30:46;;;;;;;29.93;13.13;;;;;;;0.97;83.48;99913.61;125309;1099;104227;-82
2022/01/09 05:33:17;;;;;;;29.97;12.50;;;;;;;0.96;83.78;99914.39;126117;1099;104175;-81
2022/01/09 05:35:49;;;;;;;31.23;12.93;;;;;;;0.97;83.76;99918.78;126258;1099;104201;-80
2022/01/09 05:38:20;;;;;;;28.50;11.27;;;;;;;1.00;83.63;99920.67;125419;1099;104274;-80
2022/01/09 05:40:51;;;;;;;29.63;11.33;;;;;;;0.99;83.65;99919.76;126309;1099;104159;-81
2022/01/09 05:43:23;;;;;;;30.80;12.17;;;;;;;0.99;83.33;99909.42;126335;1098;104178;-80
2022/01/09 05:45:54;;;;;;;24.53;9.57;;;;;;;1.02;84.00;99903.57;126335;1099;104143;-79
2022/01/09 05:48:25;;;;;;;22.43;8.93;;;;;;;0.99;84.85;99898.20;125420;1099;104226;-79
2022/01/09 05:50:58;;;;;;;31.27;12.37;;;;;;;0.95;84.38;99904.88;126292;1099;104271;-79
2022/01/09 05:53:29;;;;;;;29.50;12.53;;;;;;;0.92;84.00;99896.93;126345;1099;104181;-79
2022/01/09 05:56:01;;;;;;;31.60;12.43;;;;;;;0.91;84.05;99895.13;126319;1099;104243;-79
2022/01/09 05:58:34;;;;;;;32.73;12.37;;;;;;;0.90;84.03;99901.08;126264;1099;104326;-80
2022/01/09 06:01:09;;;;;;;31.35;12.18;;;;;;;0.89;84.40;99896.73;126347;1099;104149;-80
2022/01/09 06:03:41;;;;;;;31.00;13.17;;;;;;;0.87;83.80;99890.55;126340;1098;110784;-79
2022/01/09 06:06:12;;;;;;;32.73;12.97;;;;;;;0.87;84.32;99895.72;126299;1099;104188;-80
2022/01/09 06:08:43;;;;;;;30.60;11.90;;;;;;;0.86;84.48;99897.42;126347;1098;104149;-80
2022/01/09 06:11:15;;;;;;;27.67;11.63;;;;;;;0.85;83.69;99892.16;126332;1099;104204;-80
2022/01/09 06:13:50;;;;;;;29.17;11.00;;;;;;;0.82;84.33;99882.50;126346;1099;104162;-80
2022/01/09 06:16:24;;;;;;;32.53;12.53;;;;;;;0.81;84.59;99883.32;126277;1099;104146;-82
2022/01/09 06:18:55;;;;;;;30.17;13.00;;;;;;;0.81;83.89;99882.41;126202;1099;104303;-81
2022/01/09 06:21:27;;;;;;;31.10;12.80;;;;;;;0.83;84.27;99873.09;126294;1099;104221;-82
2022/01/09 06:23:59;;;;;;;30.27;13.00;;;;;;;0.83;83.90;99880.84;126231;1099;108820;-82
2022/01/09 06:26:30;;;;;;;31.73;11.70;;;;;;;0.85;84.35;99876.66;125441;1098;104274;-81
2022/01/09 06:29:01;;;;;;;30.23;12.20;;;;;;;0.82;84.17;99876.45;126277;1099;104198;-81
2022/01/09 06:31:33;;;;;;;28.43;12.40;;;;;;;0.82;84.15;99868.70;126379;1099;104239;-81
2022/01/09 06:34:06;;;;;;;33.17;13.60;;;;;;;0.83;84.08;99867.92;126325;1099;104140;-80
2022/01/09 06:36:38;;;;;;;32.70;13.10;;;;;;;0.86;84.10;99875.87;126329;1099;104172;-80
2022/01/09 06:39:12;;;;;;;26.23;10.63;;;;;;;0.89;85.08;99873.48;126392;1099;104162;-80
2022/01/09 06:41:44;;;;;;;32.03;12.27;;;;;;;0.87;84.12;99870.80;126354;1099;104232;-80
2022/01/09 06:44:16;;;;;;;27.53;11.20;;;;;;;0.87;85.09;99867.30;126193;1099;104156;-79
2022/01/09 06:46:47;;;;;;;25.83;11.27;;;;;;;0.87;84.64;99864.72;126363;1099;104580;-79
2022/01/09 06:49:18;;;;;;;31.10;11.87;;;;;;;0.86;84.83;99863.84;126258;1099;104146;-79
2022/01/09 06:51:50;;;;;;;31.93;12.27;;;;;;;0.86;85.36;99856.09;126322;1099;104176;-79
2022/01/09 06:54:21;;;;;;;29.00;11.40;;;;;;;0.86;84.66;99860.38;126221;1099;104144;-78
2022/01/09 06:56:53;;;;;;;29.57;11.70;;;;;;;0.86;84.41;99863.84;126250;1099;104152;-79
2022/01/09 06:59:24;;;;;;;31.90;11.03;;;;;;;0.87;84.66;99859.55;126290;1099;102243;-80
2022/01/09 07:01:55;;;;;;;26.50;11.40;;;;;;;0.89;84.17;99852.81;126323;1098;104152;-79
2022/01/09 07:04:30;;;;;;;30.03;11.47;;;;;;;0.92;84.35;99847.84;126264;1099;104168;-80
2022/01/09 07:07:01;;;;;;;26.97;11.83;;;;;;;0.96;84.30;99838.59;126386;1099;104168;-78
2022/01/09 07:09:32;;;;;;;28.03;11.27;;;;;;;0.97;84.36;99841.27;126378;1099;104157;-80
2022/01/09 07:12:04;;;;;;;26.53;10.87;;;;;;;0.99;84.45;99841.37;126383;1099;104159;-80
2022/01/09 07:14:36;;;;;;;25.73;11.03;;;;;;;1.02;83.74;99834.69;126281;1099;104300;-80
2022/01/09 07:17:08;;;;;;;31.10;12.13;;;;;;;1.06;84.46;99836.69;126299;1099;104143;-80
2022/01/09 07:19:39;;;;;;;27.70;12.33;;;;;;;1.08;84.21;99827.33;126269;1099;104188;-80
2022/01/09 07:22:10;;;;;;;27.23;10.83;;;;;;;1.12;84.12;99820.65;126300;1099;104146;-80
2022/01/09 07:24:42;;;;;;;26.30;11.17;;;;;;;1.16;84.78;99822.64;126204;1099;104204;-81
2022/01/09 07:27:15;;;;;;;26.67;11.13;;;;;;;1.16;84.65;99824.34;125450;1099;104220;-80
2022/01/09 07:29:47;;;;;;;26.45;10.80;;;;;;;1.16;83.83;99821.75;126331;1099;104280;-79
2022/01/09 07:32:19;;;;;;;25.30;11.17;;;;;;;1.17;84.10;99814.09;126305;1099;104165;-79
2022/01/09 07:34:51;;;;;;;27.43;12.00;;;;;;;1.18;84.83;99804.64;126335;1099;104156;-80
2022/01/09 07:37:22;;;;;;;26.30;11.23;;;;;;;1.21;84.60;99810.00;126348;1099;104178;-80
2022/01/09 07:39:53;;;;;;;27.67;11.40;;;;;;;1.19;84.66;99802.16;126329;1099;104152;-80
2022/01/09 07:42:25;;;;;;;29.53;11.97;;;;;;;1.22;84.01;99801.46;126337;1099;104205;-79
2022/01/09 07:44:58;;;;;;;25.30;10.87;;;;;;;1.24;84.68;99799.85;126252;1099;104149;-79
2022/01/09 07:47:29;;;;;;;29.17;11.30;;;;;;;1.24;84.29;99795.56;126339;1099;104150;-79
2022/01/09 07:50:01;;;;;;;28.60;10.20;;;;;;;1.25;84.44;99797.36;126293;1099;104275;-79
2022/01/09 07:52:35;;;;;;;26.83;11.23;;;;;;;1.25;84.05;99802.53;126296;1099;104147;-80
2022/01/09 07:55:10;;;;;;;27.77;11.00;;;;;;;1.25;84.69;99796.48;126342;1099;104169;-80
2022/01/09 07:57:41;;;;;;;24.37;10.37;;;;;;;1.23;84.46;99791.22;126335;1099;104152;-79
2022/01/09 08:00:17;;;;;;;26.13;10.57;;;;;;;1.27;84.16;99793.98;126341;1099;104640;-80
2022/01/09 08:02:51;;;;;;;27.70;10.67;;;;;;;1.29;84.52;99784.62;126353;1099;104194;-79
2022/01/09 08:05:22;;;;;;;26.17;10.33;;;;;;;1.28;84.46;99785.41;126301;1099;104229;-79
2022/01/09 08:07:53;;;;;;;25.60;10.80;;;;;;;1.27;84.02;99779.36;126364;1099;104159;-80
2022/01/09 08:10:29;;;;;;;24.80;10.63;;;;;;;1.27;84.86;99774.19;125383;1099;104200;-79
2022/01/09 08:13:02;;;;;;;25.12;10.00;;;;;;;1.29;84.21;99770.00;126282;1099;104172;-80
2022/01/09 08:15:35;;;;;;;25.70;10.30;;;;;;;1.29;84.09;99770.00;126301;1099;104158;-79
2022/01/09 08:18:06;;;;;;;22.77;9.33;;;;;;;1.30;84.55;99766.63;126321;1099;104207;-80
2022/01/09 08:20:38;;;;;;;25.17;10.00;;;;;;;1.32;84.24;99762.43;126351;1099;104159;-80
2022/01/09 08:23:09;;;;;;;24.73;10.40;;;;;;;1.34;84.13;99760.86;126263;1099;104229;-79
2022/01/09 08:25:40;;;;;;;24.27;10.07;;;;;;;1.35;84.75;99760.03;126244;1099;104153;-78
2022/01/09 08:28:12;;;;;;;21.60;8.80;;;;;;;1.35;84.69;99747.11;126351;1099;104153;-79
2022/01/09 08:30:43;;;;;;;23.57;9.90;;;;;;;1.36;84.19;99748.91;126224;1099;104939;-79
2022/01/09 08:33:15;;;;;;;23.40;9.57;;;;;;;1.40;84.67;99737.95;126306;1099;104188;-78
2022/01/09 08:35:46;;;;;;;24.53;9.40;;;;;;;1.41;84.42;99739.72;126211;1099;104290;-79
2022/01/09 08:38:20;;;;;;;22.73;8.67;;;;;;;1.41;84.90;99731.08;126354;1098;104319;-78
2022/01/09 08:40:51;;;;;;;21.62;9.08;;;;;;;1.42;84.23;99728.59;126324;1099;104233;-79
2022/01/09 08:43:23;;;;;;;26.53;9.13;;;;;;;1.44;85.18;99734.73;126259;1099;104145;-79
2022/01/09 08:45:54;;;;;;;26.37;9.83;;;;;;;1.48;84.25;99737.50;126320;1098;104172;-80
2022/01/09 08:48:26;;;;;;;23.57;9.83;;;;;;;1.51;84.63;99737.69;126350;1098;104137;-80
2022/01/09 08:50:58;;;;;;;22.77;10.57;;;;;;;1.56;84.64;99737.17;126349;1099;104143;-80
2022/01/09 08:53:31;;;;;;;24.70;10.50;;;;;;;1.59;84.32;99737.35;126307;1099;104759;-80
2022/01/09 08:56:05;;;;;;;23.20;9.17;;;;;;;1.59;84.86;99726.09;126307;1099;104146;-79
2022/01/09 08:58:38;;;;;;;23.77;9.87;;;;;;;1.58;84.25;99726.91;126358;1099;104227;-79
2022/01/09 09:01:09;;;;;;;26.00;9.47;;;;;;;1.59;84.78;99720.92;126359;1099;104022;-79
2022/01/09 09:03:41;;;;;;;24.40;10.10;;;;;;;1.60;84.85;99717.55;126401;1099;104182;-79
2022/01/09 09:06:15;;;;;;;25.37;9.50;;;;;;;1.59;85.05;99710.58;125418;1099;104174;-79
2022/01/09 09:08:46;;;;;;;27.40;10.30;;;;;;;1.57;84.74;99700.17;126305;1099;104156;-79
2022/01/09 09:11:19;;;;;;;24.40;9.63;;;;;;;1.58;84.99;99694.17;126403;1099;104252;-79
2022/01/09 09:13:50;;;;;;;24.17;9.80;;;;;;;1.61;84.66;99698.65;126335;1099;104261;-79
2022/01/09 09:16:21;;;;;;;25.37;9.80;;;;;;;1.61;84.81;99709.88;126276;1099;104329;-80
2022/01/09 09:18:53;;;;;;;25.10;11.10;;;;;;;1.65;84.82;99694.53;126359;1099;104155;-79
2022/01/09 09:21:24;;;;;;;24.60;9.57;;;;;;;1.64;85.37;99697.91;126340;1099;104248;-79
2022/01/09 09:23:55;;;;;;;23.00;8.90;;;;;;;1.63;85.05;99689.27;126408;1099;104175;-80
2022/01/09 09:26:30;;;;;;;27.17;10.23;;;;;;;1.62;85.02;99697.83;126281;1099;104146;-79
2022/01/09 09:29:02;;;;;;;26.67;10.43;;;;;;;1.63;85.05;99690.98;126368;1099;104149;-79
2022/01/09 09:31:33;;;;;;;23.53;9.27;;;;;;;1.60;85.13;99682.22;126387;1099;104252;-79
2022/01/09 09:34:08;;;;;;;31.03;11.63;;;;;;;1.59;85.63;99695.06;126294;1098;103963;-79
2022/01/09 09:36:39;;;;;;;25.07;10.63;;;;;;;1.57;85.32;99688.92;126346;1099;104198;-79
2022/01/09 09:39:13;;;;;;;24.00;10.30;;;;;;;1.56;84.81;99689.74;126359;1099;104159;-80
2022/01/09 09:41:43;;;;;;;;;;;;;;;1.52;86.31;99678.30;126402;1099;104150;-79
2022/01/09 09:44:14;;;;;;;23.33;9.87;;;;;;;1.52;85.35;99686.06;126337;1099;104224;-79
2022/01/09 09:46:53;;;;;;;26.43;10.43;;;;;;;1.52;85.15;99678.30;126280;1099;104162;-79
2022/01/09 09:49:24;;;;;;;27.17;10.30;;;;;;;1.56;84.89;99679.40;126340;1099;104159;-80
2022/01/09 09:51:55;;;;;;;27.00;10.20;;;;;;;1.57;84.94;99686.33;125434;1099;104156;-80
2022/01/09 09:54:27;;;;;;;24.80;9.60;;;;;;;1.59;85.51;99676.95;126301;1099;104217;-79
2022/01/09 09:56:58;;;;;;;29.73;11.23;;;;;;;1.61;85.05;99680.55;126373;1099;104213;-79
2022/01/09 09:59:38;;;;;;;30.07;11.80;;;;;;;1.61;84.66;99683.13;126212;1099;104146;-80
2022/01/09 10:02:13;;;;;;;27.50;10.40;;;;;;;1.64;84.87;99675.55;126352;1099;104159;-80
2022/01/09 10:05:01;;;;;;;26.53;10.43;;;;;;;1.66;85.15;99676.52;126273;1099;105207;-80
2022/01/09 10:07:35;;;;;;;28.27;10.57;;;;;;;1.65;85.24;99660.92;126332;1099;104156;-79
2022/01/09 10:10:09;;;;;;;26.52;9.78;;;;;;;1.65;85.57;99666.97;126303;1099;104184;-78
2022/01/09 10:12:43;;;;;;;29.33;10.87;;;;;;;1.64;85.45;99662.62;126265;1099;104252;-80
2022/01/09 10:15:17;;;;;;;27.62;10.72;;;;;;;1.66;85.10;99666.18;126326;1099;104179;-80
2022/01/09 10:17:51;;;;;;;26.60;11.33;;;;;;;1.68;84.84;99659.39;126343;1099;104654;-79
2022/01/09 10:20:25;;;;;;;24.90;10.23;;;;;;;1.72;85.27;99668.23;126325;1099;104171;-79
2022/01/09 10:22:57;;;;;;;27.70;11.30;;;;;;;1.70;84.58;99655.22;126356;1099;104178;-79
2022/01/09 10:25:36;;;;;;;24.90;10.33;;;;;;;1.73;84.79;99667.41;126212;1099;104351;-79
2022/01/09 10:28:12;;;;;;;28.70;10.53;;;;;;;1.75;84.67;99658.95;126243;1099;104150;-80
2022/01/09 10:30:45;;;;;;;27.50;11.27;;;;;;;1.80;84.82;99659.21;126364;1099;104176;-79
2022/01/09 10:33:20;;;;;;;26.47;11.20;;;;;;;1.83;85.24;99658.51;126354;1099;104210;-79
2022/01/09 10:35:52;;;;;;;30.13;12.60;;;;;;;1.86;84.68;99651.80;126401;1099;104418;-80
2022/01/09 10:38:27;;;;;;;29.63;11.67;;;;;;;1.90;85.05;99651.18;126283;1098;104271;-79
2022/01/09 10:41:03;;;;;;;28.67;12.10;;;;;;;1.89;84.22;99658.86;126366;1099;104252;-80
2022/01/09 10:43:39;;;;;;;27.83;12.47;;;;;;;1.91;84.28;99645.17;125424;1099;104347;-80
2022/01/09 10:46:12;;;;;;;36.13;15.90;;;;;;;1.98;85.25;99647.31;126315;1098;104242;-80
2022/01/09 10:48:46;;;;;;;31.30;13.83;;;;;;;2.03;84.96;99642.40;126244;1099;104286;-79
2022/01/09 10:51:18;;;;;;;28.10;13.60;;;;;;;2.06;84.92;99631.34;126294;1098;104178;-79
2022/01/09 10:53:51;;;;;;;29.03;13.53;;;;;;;2.10;84.69;99634.19;126364;1099;104178;-80
2022/01/09 10:56:26;;;;;;;26.47;10.87;;;;;;;2.14;84.77;99628.35;126298;1099;104143;-79
2022/01/09 10:58:58;;;;;;;30.37;13.40;;;;;;;2.18;84.73;99624.22;126302;1099;104165;-79
2022/01/09 11:01:33;;;;;;;24.90;10.17;;;;;;;2.19;84.93;99625.14;126297;1099;104283;-80
2022/01/09 11:04:08;;;;;;;31.33;13.90;;;;;;;2.18;84.87;99616.45;126352;1099;104245;-80
2022/01/09 11:06:44;;;;;;;29.13;11.90;;;;;;;2.21;84.39;99626.10;126336;1099;104213;-79
2022/01/09 11:09:17;;;;;;;32.40;14.53;;;;;;;2.20;84.76;99625.22;126260;1099;104146;-80
2022/01/09 11:11:50;;;;;;;35.00;14.00;;;;;;;2.22;84.77;99625.30;126355;1098;104165;-80
2022/01/09 11:14:23;;;;;;;29.93;13.10;;;;;;;2.21;85.23;99628.69;126342;1099;104166;-80
2022/01/09 11:16:59;;;;;;;31.95;13.75;;;;;;;2.22;84.87;99628.77;126320;1099;104216;-80
2022/01/09 11:19:34;;;;;;;32.33;13.77;;;;;;;2.23;85.09;99622.80;126303;1099;104198;-79
2022/01/09 11:22:07;;;;;;;36.67;14.27;;;;;;;2.25;84.92;99615.12;126398;1099;104150;-80
2022/01/09 11:25:09;;;;;;;32.60;14.17;;;;;;;2.28;85.05;99620.47;126350;1099;104172;-80
2022/01/09 11:27:58;;;;;;;31.30;13.53;;;;;;;2.30;84.51;99618.84;126334;1099;104172;-81
2022/01/09 11:30:46;;;;;;;29.63;12.43;;;;;;;2.33;84.90;99611.23;126318;1099;108105;-80
2022/01/09 11:33:49;;;;;;;30.10;13.00;;;;;;;2.35;85.21;99609.61;126328;1099;104146;-80
2022/01/09 11:36:26;;;;;;;28.10;12.83;;;;;;;2.39;84.47;99606.39;125703;1099;104185;-80
2022/01/09 11:39:11;;;;;;;28.93;12.53;;;;;;;2.41;84.90;99607.35;126306;1099;104162;-80